sensor_id;sensor_type;location;lat;lon;timestamp;temperature;humidity
18741;DHT22;9499;52.472;13.448;2023-10-19T00:00:30;7.80;99.90
18741;DHT22;9499;52.472;13.448;2023-10-19T00:02:59;7.80;99.90
18741;DHT22;9499;52.472;13.448;2023-10-19T00:05:28;7.80;99.90
18741;DHT22;9499;52.472;13.448;2023-10-19T00:07:56;7.80;99.90
18741;DHT22;9499;52.472;13.448;2023-10-19T00:10:22;7.80;99.90
18741;DHT22;9499;52.472;13.448;2023-10-19T00:12:51;7.80;99.90
18741;DHT22;9499;52.472;13.448;2023-10-19T00:15:25;7.80;99.90
18741;DHT22;9499;52.472;13.448;2023-10-19T00:17:55;7.80;99.90
18741;DHT22;9499;52.472;13.448;2023-10-19T00:20:21;7.80;99.90
18741;DHT22;9499;52.472;13.448;2023-10-19T00:23:03;7.80;99.90
18741;DHT22;9499;52.472;13.448;2023-10-19T00:25:31;7.80;99.90
18741;DHT22;9499;52.472;13.448;2023-10-19T00:28:08;7.80;52.30
18741;DHT22;9499;52.472;13.448;2023-10-19T00:30:38;7.80;1.00
18741;DHT22;9499;52.472;13.448;2023-10-19T00:33:04;7.80;99.90
18741;DHT22;9499;52.472;13.448;2023-10-19T00:35:34;7.80;99.90
18741;DHT22;9499;52.472;13.448;2023-10-19T00:38:08;7.70;99.90
18741;DHT22;9499;52.472;13.448;2023-10-19T00:40:52;7.70;99.90
18741;DHT22;9499;52.472;13.448;2023-10-19T00:43:28;7.70;99.90
18741;DHT22;9499;52.472;13.448;2023-10-19T00:45:58;7.70;99.90
18741;DHT22;9499;52.472;13.448;2023-10-19T00:48:27;7.70;99.90
18741;DHT22;9499;52.472;13.448;2023-10-19T00:50:54;7.70;99.90
18741;DHT22;9499;52.472;13.448;2023-10-19T00:53:34;7.70;99.90
18741;DHT22;9499;52.472;13.448;2023-10-19T00:56:01;7.70;99.90
18741;DHT22;9499;52.472;13.448;2023-10-19T00:58:30;7.70;99.90
18741;DHT22;9499;52.472;13.448;2023-10-19T01:00:57;7.70;99.90
18741;DHT22;9499;52.472;13.448;2023-10-19T01:03:25;7.70;99.90
18741;DHT22;9499;52.472;13.448;2023-10-19T01:05:57;7.70;99.90
18741;DHT22;9499;52.472;13.448;2023-10-19T01:08:24;7.70;99.90
18741;DHT22;9499;52.472;13.448;2023-10-19T01:10:58;7.70;99.90
18741;DHT22;9499;52.472;13.448;2023-10-19T01:13:25;7.70;99.90
18741;DHT22;9499;52.472;13.448;2023-10-19T01:15:54;7.70;99.90
18741;DHT22;9499;52.472;13.448;2023-10-19T01:18:21;7.70;99.90
18741;DHT22;9499;52.472;13.448;2023-10-19T01:20:48;7.70;1.00
18741;DHT22;9499;52.472;13.448;2023-10-19T01:23:18;7.60;99.90
18741;DHT22;9499;52.472;13.448;2023-10-19T01:25:53;7.60;99.90
18741;DHT22;9499;52.472;13.448;2023-10-19T01:28:30;7.70;1.00
18741;DHT22;9499;52.472;13.448;2023-10-19T01:31:09;7.70;99.90
18741;DHT22;9499;52.472;13.448;2023-10-19T01:33:40;7.70;99.90
18741;DHT22;9499;52.472;13.448;2023-10-19T01:36:09;7.70;99.90
18741;DHT22;9499;52.472;13.448;2023-10-19T01:38:41;7.70;99.90
18741;DHT22;9499;52.472;13.448;2023-10-19T01:41:08;7.70;99.90
18741;DHT22;9499;52.472;13.448;2023-10-19T01:43:40;7.70;1.00
18741;DHT22;9499;52.472;13.448;2023-10-19T01:46:07;7.70;99.90
18741;DHT22;9499;52.472;13.448;2023-10-19T01:48:38;7.70;99.90
18741;DHT22;9499;52.472;13.448;2023-10-19T01:51:06;7.70;99.90
18741;DHT22;9499;52.472;13.448;2023-10-19T01:53:36;7.70;99.90
18741;DHT22;9499;52.472;13.448;2023-10-19T01:56:03;7.70;99.90
18741;DHT22;9499;52.472;13.448;2023-10-19T01:58:31;7.60;1.00
18741;DHT22;9499;52.472;13.448;2023-10-19T02:00:56;7.60;1.00
18741;DHT22;9499;52.472;13.448;2023-10-19T02:03:25;7.60;1.00
18741;DHT22;9499;52.472;13.448;2023-10-19T02:06:00;7.60;1.00
18741;DHT22;9499;52.472;13.448;2023-10-19T02:08:35;7.60;1.00
18741;DHT22;9499;52.472;13.448;2023-10-19T02:11:05;7.60;1.00
18741;DHT22;9499;52.472;13.448;2023-10-19T02:13:39;7.60;1.00
18741;DHT22;9499;52.472;13.448;2023-10-19T02:16:05;7.60;1.00
18741;DHT22;9499;52.472;13.448;2023-10-19T02:18:32;7.60;1.00
18741;DHT22;9499;52.472;13.448;2023-10-19T02:21:00;7.60;1.00
18741;DHT22;9499;52.472;13.448;2023-10-19T02:23:32;7.60;1.00
18741;DHT22;9499;52.472;13.448;2023-10-19T02:25:59;7.60;1.00
18741;DHT22;9499;52.472;13.448;2023-10-19T02:28:28;7.60;1.00
18741;DHT22;9499;52.472;13.448;2023-10-19T02:30:57;7.60;1.00
18741;DHT22;9499;52.472;13.448;2023-10-19T02:33:29;7.60;1.00
18741;DHT22;9499;52.472;13.448;2023-10-19T02:35:55;7.50;1.00
18741;DHT22;9499;52.472;13.448;2023-10-19T02:38:22;7.50;1.00
18741;DHT22;9499;52.472;13.448;2023-10-19T02:40:48;7.50;1.00
18741;DHT22;9499;52.472;13.448;2023-10-19T02:43:14;7.60;1.00
18741;DHT22;9499;52.472;13.448;2023-10-19T02:45:43;7.60;1.00
18741;DHT22;9499;52.472;13.448;2023-10-19T02:48:13;7.50;1.00
18741;DHT22;9499;52.472;13.448;2023-10-19T02:50:38;7.50;1.00
18741;DHT22;9499;52.472;13.448;2023-10-19T02:53:05;7.50;1.00
18741;DHT22;9499;52.472;13.448;2023-10-19T02:55:31;7.60;1.00
18741;DHT22;9499;52.472;13.448;2023-10-19T02:57:58;7.60;1.00
18741;DHT22;9499;52.472;13.448;2023-10-19T03:00:24;7.60;1.00
18741;DHT22;9499;52.472;13.448;2023-10-19T03:03:00;7.60;1.00
18741;DHT22;9499;52.472;13.448;2023-10-19T03:05:25;7.60;1.00
18741;DHT22;9499;52.472;13.448;2023-10-19T03:07:53;7.70;1.00
18741;DHT22;9499;52.472;13.448;2023-10-19T03:10:18;7.70;1.00
18741;DHT22;9499;52.472;13.448;2023-10-19T03:12:49;7.70;1.00
18741;DHT22;9499;52.472;13.448;2023-10-19T03:15:16;7.70;1.00
18741;DHT22;9499;52.472;13.448;2023-10-19T03:17:44;7.70;99.90
18741;DHT22;9499;52.472;13.448;2023-10-19T03:20:12;7.60;99.90
18741;DHT22;9499;52.472;13.448;2023-10-19T03:22:39;7.70;99.90
18741;DHT22;9499;52.472;13.448;2023-10-19T03:25:07;7.70;99.90
18741;DHT22;9499;52.472;13.448;2023-10-19T03:28:00;7.60;99.90
18741;DHT22;9499;52.472;13.448;2023-10-19T03:30:33;7.60;1.00
18741;DHT22;9499;52.472;13.448;2023-10-19T03:33:04;7.60;1.00
18741;DHT22;9499;52.472;13.448;2023-10-19T03:35:32;7.60;99.90
18741;DHT22;9499;52.472;13.448;2023-10-19T03:38:00;7.60;99.90
18741;DHT22;9499;52.472;13.448;2023-10-19T03:40:33;7.60;99.90
18741;DHT22;9499;52.472;13.448;2023-10-19T03:43:04;7.70;1.00
18741;DHT22;9499;52.472;13.448;2023-10-19T03:45:40;7.70;99.90
18741;DHT22;9499;52.472;13.448;2023-10-19T03:48:12;7.70;99.90
18741;DHT22;9499;52.472;13.448;2023-10-19T03:50:42;7.70;99.90
18741;DHT22;9499;52.472;13.448;2023-10-19T03:53:09;7.70;99.90
18741;DHT22;9499;52.472;13.448;2023-10-19T03:55:37;7.70;1.00
18741;DHT22;9499;52.472;13.448;2023-10-19T03:58:04;7.70;99.90
18741;DHT22;9499;52.472;13.448;2023-10-19T04:00:30;7.70;99.90
18741;DHT22;9499;52.472;13.448;2023-10-19T04:02:58;7.70;99.90
18741;DHT22;9499;52.472;13.448;2023-10-19T04:05:25;7.70;99.90
18741;DHT22;9499;52.472;13.448;2023-10-19T04:07:55;7.70;99.90
18741;DHT22;9499;52.472;13.448;2023-10-19T04:10:23;7.70;99.90
18741;DHT22;9499;52.472;13.448;2023-10-19T04:13:10;7.70;1.00
18741;DHT22;9499;52.472;13.448;2023-10-19T04:15:37;7.70;1.00
18741;DHT22;9499;52.472;13.448;2023-10-19T04:18:04;7.70;1.00
18741;DHT22;9499;52.472;13.448;2023-10-19T04:20:35;7.70;99.90
18741;DHT22;9499;52.472;13.448;2023-10-19T04:23:21;7.70;1.00
18741;DHT22;9499;52.472;13.448;2023-10-19T04:25:52;7.70;1.00
18741;DHT22;9499;52.472;13.448;2023-10-19T04:28:19;7.70;1.00
18741;DHT22;9499;52.472;13.448;2023-10-19T04:30:55;7.60;1.00
18741;DHT22;9499;52.472;13.448;2023-10-19T04:33:21;7.70;1.00
18741;DHT22;9499;52.472;13.448;2023-10-19T04:35:52;7.60;1.00
18741;DHT22;9499;52.472;13.448;2023-10-19T04:38:22;7.60;1.00
18741;DHT22;9499;52.472;13.448;2023-10-19T04:40:49;7.60;1.00
18741;DHT22;9499;52.472;13.448;2023-10-19T04:43:16;7.60;1.00
18741;DHT22;9499;52.472;13.448;2023-10-19T04:45:42;7.60;1.00
18741;DHT22;9499;52.472;13.448;2023-10-19T04:48:10;7.60;1.00
18741;DHT22;9499;52.472;13.448;2023-10-19T04:50:37;7.60;1.00
18741;DHT22;9499;52.472;13.448;2023-10-19T04:53:05;7.60;1.00
18741;DHT22;9499;52.472;13.448;2023-10-19T04:55:33;7.50;1.00
18741;DHT22;9499;52.472;13.448;2023-10-19T04:57:59;7.50;1.00
18741;DHT22;9499;52.472;13.448;2023-10-19T05:00:25;7.50;1.00
18741;DHT22;9499;52.472;13.448;2023-10-19T05:02:53;7.50;1.00
18741;DHT22;9499;52.472;13.448;2023-10-19T05:05:20;7.50;1.00
18741;DHT22;9499;52.472;13.448;2023-10-19T05:07:46;7.50;1.00
18741;DHT22;9499;52.472;13.448;2023-10-19T05:10:13;7.50;1.00
18741;DHT22;9499;52.472;13.448;2023-10-19T05:12:41;7.50;1.00
18741;DHT22;9499;52.472;13.448;2023-10-19T05:15:08;7.50;43.80
18741;DHT22;9499;52.472;13.448;2023-10-19T05:17:34;7.50;9.00
18741;DHT22;9499;52.472;13.448;2023-10-19T05:20:01;7.50;1.00
18741;DHT22;9499;52.472;13.448;2023-10-19T05:22:29;7.50;1.00
18741;DHT22;9499;52.472;13.448;2023-10-19T05:24:57;7.40;36.90
18741;DHT22;9499;52.472;13.448;2023-10-19T05:27:24;7.40;85.90
18741;DHT22;9499;52.472;13.448;2023-10-19T05:29:52;7.40;86.70
18741;DHT22;9499;52.472;13.448;2023-10-19T05:32:19;7.40;56.00
18741;DHT22;9499;52.472;13.448;2023-10-19T05:34:46;7.40;1.00
18741;DHT22;9499;52.472;13.448;2023-10-19T05:37:12;7.30;8.80
18741;DHT22;9499;52.472;13.448;2023-10-19T05:39:42;7.30;99.90
18741;DHT22;9499;52.472;13.448;2023-10-19T05:42:09;7.30;99.90
18741;DHT22;9499;52.472;13.448;2023-10-19T05:44:36;7.30;99.90
18741;DHT22;9499;52.472;13.448;2023-10-19T05:47:04;7.30;99.90
18741;DHT22;9499;52.472;13.448;2023-10-19T05:49:32;7.30;99.90
18741;DHT22;9499;52.472;13.448;2023-10-19T05:51:59;7.30;99.90
18741;DHT22;9499;52.472;13.448;2023-10-19T05:54:25;7.20;99.90
18741;DHT22;9499;52.472;13.448;2023-10-19T05:56:52;7.20;1.00
18741;DHT22;9499;52.472;13.448;2023-10-19T05:59:19;7.20;1.00
18741;DHT22;9499;52.472;13.448;2023-10-19T06:01:45;7.20;1.00
18741;DHT22;9499;52.472;13.448;2023-10-19T06:04:13;7.20;1.00
18741;DHT22;9499;52.472;13.448;2023-10-19T06:06:40;7.20;1.00
18741;DHT22;9499;52.472;13.448;2023-10-19T06:09:07;7.20;1.00
18741;DHT22;9499;52.472;13.448;2023-10-19T06:11:34;7.20;1.00
18741;DHT22;9499;52.472;13.448;2023-10-19T06:14:03;7.20;1.00
18741;DHT22;9499;52.472;13.448;2023-10-19T06:16:32;7.20;1.00
18741;DHT22;9499;52.472;13.448;2023-10-19T06:18:58;7.10;1.00
18741;DHT22;9499;52.472;13.448;2023-10-19T06:21:26;7.10;1.00
18741;DHT22;9499;52.472;13.448;2023-10-19T06:23:53;7.10;1.00
18741;DHT22;9499;52.472;13.448;2023-10-19T06:26:20;7.10;1.00
18741;DHT22;9499;52.472;13.448;2023-10-19T06:28:46;7.00;1.00
18741;DHT22;9499;52.472;13.448;2023-10-19T06:31:13;7.00;1.00
18741;DHT22;9499;52.472;13.448;2023-10-19T06:33:40;7.00;1.00
18741;DHT22;9499;52.472;13.448;2023-10-19T06:36:07;7.00;1.00
18741;DHT22;9499;52.472;13.448;2023-10-19T06:38:35;7.00;1.00
18741;DHT22;9499;52.472;13.448;2023-10-19T06:41:10;7.00;1.00
18741;DHT22;9499;52.472;13.448;2023-10-19T06:43:37;7.00;1.00
18741;DHT22;9499;52.472;13.448;2023-10-19T06:46:04;7.00;1.00
18741;DHT22;9499;52.472;13.448;2023-10-19T06:48:31;7.00;1.00
18741;DHT22;9499;52.472;13.448;2023-10-19T06:50:57;7.00;1.00
18741;DHT22;9499;52.472;13.448;2023-10-19T06:53:25;7.00;1.00
18741;DHT22;9499;52.472;13.448;2023-10-19T06:55:53;7.00;1.00
18741;DHT22;9499;52.472;13.448;2023-10-19T06:58:21;7.00;1.00
18741;DHT22;9499;52.472;13.448;2023-10-19T07:00:51;7.00;1.00
18741;DHT22;9499;52.472;13.448;2023-10-19T07:03:22;7.00;1.00
18741;DHT22;9499;52.472;13.448;2023-10-19T07:05:49;6.90;1.00
18741;DHT22;9499;52.472;13.448;2023-10-19T07:08:16;6.90;1.00
18741;DHT22;9499;52.472;13.448;2023-10-19T07:10:44;7.00;1.00
18741;DHT22;9499;52.472;13.448;2023-10-19T07:13:12;7.00;1.00
18741;DHT22;9499;52.472;13.448;2023-10-19T07:15:38;6.90;1.00
18741;DHT22;9499;52.472;13.448;2023-10-19T07:18:06;7.00;1.00
18741;DHT22;9499;52.472;13.448;2023-10-19T07:20:34;7.00;1.00
18741;DHT22;9499;52.472;13.448;2023-10-19T07:23:04;7.00;1.00
18741;DHT22;9499;52.472;13.448;2023-10-19T07:25:35;7.00;1.00
18741;DHT22;9499;52.472;13.448;2023-10-19T07:28:08;7.10;1.00
18741;DHT22;9499;52.472;13.448;2023-10-19T07:30:38;7.10;1.00
18741;DHT22;9499;52.472;13.448;2023-10-19T07:33:05;7.10;1.00
18741;DHT22;9499;52.472;13.448;2023-10-19T07:35:34;7.20;1.00
18741;DHT22;9499;52.472;13.448;2023-10-19T07:38:03;7.20;1.00
18741;DHT22;9499;52.472;13.448;2023-10-19T07:40:30;7.30;1.00
18741;DHT22;9499;52.472;13.448;2023-10-19T07:42:57;7.20;1.00
18741;DHT22;9499;52.472;13.448;2023-10-19T07:45:23;7.30;1.00
18741;DHT22;9499;52.472;13.448;2023-10-19T07:47:52;7.40;1.00
18741;DHT22;9499;52.472;13.448;2023-10-19T07:50:19;7.40;1.00
18741;DHT22;9499;52.472;13.448;2023-10-19T07:52:49;7.40;1.00
18741;DHT22;9499;52.472;13.448;2023-10-19T07:55:16;7.50;1.00
18741;DHT22;9499;52.472;13.448;2023-10-19T07:57:43;7.50;1.00
18741;DHT22;9499;52.472;13.448;2023-10-19T08:00:12;7.50;1.00
18741;DHT22;9499;52.472;13.448;2023-10-19T08:02:40;7.60;1.00
18741;DHT22;9499;52.472;13.448;2023-10-19T08:05:08;7.60;1.00
18741;DHT22;9499;52.472;13.448;2023-10-19T08:07:37;7.70;1.00
18741;DHT22;9499;52.472;13.448;2023-10-19T08:10:06;7.70;1.00
18741;DHT22;9499;52.472;13.448;2023-10-19T08:12:34;7.70;1.00
18741;DHT22;9499;52.472;13.448;2023-10-19T08:15:01;7.70;1.00
18741;DHT22;9499;52.472;13.448;2023-10-19T08:17:29;7.70;1.00
18741;DHT22;9499;52.472;13.448;2023-10-19T08:19:55;7.70;1.00
18741;DHT22;9499;52.472;13.448;2023-10-19T08:22:24;7.70;1.00
18741;DHT22;9499;52.472;13.448;2023-10-19T08:24:53;7.70;1.00
18741;DHT22;9499;52.472;13.448;2023-10-19T08:27:20;7.80;1.00
18741;DHT22;9499;52.472;13.448;2023-10-19T08:29:49;7.80;1.00
18741;DHT22;9499;52.472;13.448;2023-10-19T08:32:15;7.80;1.00
18741;DHT22;9499;52.472;13.448;2023-10-19T08:34:42;7.80;1.00
18741;DHT22;9499;52.472;13.448;2023-10-19T08:37:08;7.90;1.00
18741;DHT22;9499;52.472;13.448;2023-10-19T08:39:37;7.90;1.00
18741;DHT22;9499;52.472;13.448;2023-10-19T08:42:04;8.00;1.00
18741;DHT22;9499;52.472;13.448;2023-10-19T08:44:31;8.00;1.00
18741;DHT22;9499;52.472;13.448;2023-10-19T08:46:58;8.00;1.00
18741;DHT22;9499;52.472;13.448;2023-10-19T08:49:25;8.10;1.00
18741;DHT22;9499;52.472;13.448;2023-10-19T08:51:54;8.10;1.00
18741;DHT22;9499;52.472;13.448;2023-10-19T08:54:20;8.10;1.00
18741;DHT22;9499;52.472;13.448;2023-10-19T08:56:48;8.10;1.00
18741;DHT22;9499;52.472;13.448;2023-10-19T08:59:15;8.10;1.00
18741;DHT22;9499;52.472;13.448;2023-10-19T09:01:42;8.10;1.00
18741;DHT22;9499;52.472;13.448;2023-10-19T09:04:10;8.00;1.00
18741;DHT22;9499;52.472;13.448;2023-10-19T09:06:37;8.10;1.00
18741;DHT22;9499;52.472;13.448;2023-10-19T09:09:07;8.10;1.00
18741;DHT22;9499;52.472;13.448;2023-10-19T09:11:34;8.10;1.00
18741;DHT22;9499;52.472;13.448;2023-10-19T09:14:02;8.10;1.00
18741;DHT22;9499;52.472;13.448;2023-10-19T09:16:31;8.20;1.00
18741;DHT22;9499;52.472;13.448;2023-10-19T09:18:59;8.20;1.00
18741;DHT22;9499;52.472;13.448;2023-10-19T09:21:26;8.20;1.00
18741;DHT22;9499;52.472;13.448;2023-10-19T09:23:54;8.30;1.00
18741;DHT22;9499;52.472;13.448;2023-10-19T09:26:23;8.30;1.00
18741;DHT22;9499;52.472;13.448;2023-10-19T09:28:51;8.30;1.00
18741;DHT22;9499;52.472;13.448;2023-10-19T09:31:20;8.30;1.00
18741;DHT22;9499;52.472;13.448;2023-10-19T09:33:49;8.30;1.00
18741;DHT22;9499;52.472;13.448;2023-10-19T09:36:18;8.30;1.00
18741;DHT22;9499;52.472;13.448;2023-10-19T09:38:48;8.30;1.00
18741;DHT22;9499;52.472;13.448;2023-10-19T09:41:17;8.40;1.00
18741;DHT22;9499;52.472;13.448;2023-10-19T09:43:46;8.40;1.00
18741;DHT22;9499;52.472;13.448;2023-10-19T09:46:23;8.40;1.00
18741;DHT22;9499;52.472;13.448;2023-10-19T09:48:49;8.50;1.00
18741;DHT22;9499;52.472;13.448;2023-10-19T09:51:18;8.50;1.00
18741;DHT22;9499;52.472;13.448;2023-10-19T09:53:48;8.50;1.00
18741;DHT22;9499;52.472;13.448;2023-10-19T09:56:19;8.40;1.00
18741;DHT22;9499;52.472;13.448;2023-10-19T09:58:49;8.40;1.00
18741;DHT22;9499;52.472;13.448;2023-10-19T10:01:17;8.50;1.00
18741;DHT22;9499;52.472;13.448;2023-10-19T10:03:49;8.50;1.00
18741;DHT22;9499;52.472;13.448;2023-10-19T10:06:26;8.50;1.00
18741;DHT22;9499;52.472;13.448;2023-10-19T10:08:53;8.50;1.00
18741;DHT22;9499;52.472;13.448;2023-10-19T10:11:22;8.50;1.00
18741;DHT22;9499;52.472;13.448;2023-10-19T10:13:49;8.50;1.00
18741;DHT22;9499;52.472;13.448;2023-10-19T10:16:18;8.50;1.00
18741;DHT22;9499;52.472;13.448;2023-10-19T10:18:48;8.50;1.00
18741;DHT22;9499;52.472;13.448;2023-10-19T10:21:17;8.60;1.00
18741;DHT22;9499;52.472;13.448;2023-10-19T10:23:47;8.60;1.00
18741;DHT22;9499;52.472;13.448;2023-10-19T10:26:15;8.50;1.00
18741;DHT22;9499;52.472;13.448;2023-10-19T10:28:46;8.50;1.00
18741;DHT22;9499;52.472;13.448;2023-10-19T10:31:14;8.50;1.00
18741;DHT22;9499;52.472;13.448;2023-10-19T10:33:42;8.50;1.00
18741;DHT22;9499;52.472;13.448;2023-10-19T10:36:12;8.50;18.10
18741;DHT22;9499;52.472;13.448;2023-10-19T10:38:38;8.40;47.00
18741;DHT22;9499;52.472;13.448;2023-10-19T10:41:05;8.40;74.80
18741;DHT22;9499;52.472;13.448;2023-10-19T10:43:48;8.40;95.70
18741;DHT22;9499;52.472;13.448;2023-10-19T10:46:15;8.40;99.90
18741;DHT22;9499;52.472;13.448;2023-10-19T10:48:42;8.40;99.90
18741;DHT22;9499;52.472;13.448;2023-10-19T10:51:16;8.40;99.90
18741;DHT22;9499;52.472;13.448;2023-10-19T10:53:43;8.40;99.90
18741;DHT22;9499;52.472;13.448;2023-10-19T10:56:09;8.50;99.90
18741;DHT22;9499;52.472;13.448;2023-10-19T10:58:37;8.50;99.90
18741;DHT22;9499;52.472;13.448;2023-10-19T11:01:04;8.50;99.90
18741;DHT22;9499;52.472;13.448;2023-10-19T11:03:31;8.40;99.90
18741;DHT22;9499;52.472;13.448;2023-10-19T11:06:03;8.50;99.90
18741;DHT22;9499;52.472;13.448;2023-10-19T11:08:31;8.40;99.90
18741;DHT22;9499;52.472;13.448;2023-10-19T11:11:03;8.50;99.90
18741;DHT22;9499;52.472;13.448;2023-10-19T11:13:31;8.50;99.90
18741;DHT22;9499;52.472;13.448;2023-10-19T11:16:01;8.50;99.90
18741;DHT22;9499;52.472;13.448;2023-10-19T11:18:28;8.40;99.90
18741;DHT22;9499;52.472;13.448;2023-10-19T11:20:55;8.40;99.90
18741;DHT22;9499;52.472;13.448;2023-10-19T11:23:36;8.30;99.90
18741;DHT22;9499;52.472;13.448;2023-10-19T11:26:02;8.30;99.90
18741;DHT22;9499;52.472;13.448;2023-10-19T11:28:30;8.20;99.90
18741;DHT22;9499;52.472;13.448;2023-10-19T11:31:10;8.20;99.90
18741;DHT22;9499;52.472;13.448;2023-10-19T11:33:37;8.10;99.90
18741;DHT22;9499;52.472;13.448;2023-10-19T11:36:04;8.00;99.90
18741;DHT22;9499;52.472;13.448;2023-10-19T11:38:31;8.00;99.90
18741;DHT22;9499;52.472;13.448;2023-10-19T11:40:58;8.00;99.90
18741;DHT22;9499;52.472;13.448;2023-10-19T11:43:25;8.00;99.90
18741;DHT22;9499;52.472;13.448;2023-10-19T11:45:51;7.90;99.90
18741;DHT22;9499;52.472;13.448;2023-10-19T11:48:18;7.90;99.90
18741;DHT22;9499;52.472;13.448;2023-10-19T11:50:45;7.80;99.90
18741;DHT22;9499;52.472;13.448;2023-10-19T11:53:12;7.80;99.90
18741;DHT22;9499;52.472;13.448;2023-10-19T11:55:39;7.80;99.90
18741;DHT22;9499;52.472;13.448;2023-10-19T11:58:08;7.90;99.90
18741;DHT22;9499;52.472;13.448;2023-10-19T12:00:36;7.90;99.90
18741;DHT22;9499;52.472;13.448;2023-10-19T12:03:04;7.90;99.90
18741;DHT22;9499;52.472;13.448;2023-10-19T12:05:31;7.90;99.90
18741;DHT22;9499;52.472;13.448;2023-10-19T12:08:02;7.90;99.90
18741;DHT22;9499;52.472;13.448;2023-10-19T12:10:29;8.00;99.90
18741;DHT22;9499;52.472;13.448;2023-10-19T12:13:01;8.00;99.90
18741;DHT22;9499;52.472;13.448;2023-10-19T12:15:30;8.00;99.90
18741;DHT22;9499;52.472;13.448;2023-10-19T12:17:56;8.00;99.90
18741;DHT22;9499;52.472;13.448;2023-10-19T12:20:23;8.00;99.90
18741;DHT22;9499;52.472;13.448;2023-10-19T12:22:50;8.10;99.90
18741;DHT22;9499;52.472;13.448;2023-10-19T12:25:19;8.10;99.90
18741;DHT22;9499;52.472;13.448;2023-10-19T12:27:45;8.10;99.90
18741;DHT22;9499;52.472;13.448;2023-10-19T12:30:12;8.10;99.90
18741;DHT22;9499;52.472;13.448;2023-10-19T12:32:47;8.20;99.90
18741;DHT22;9499;52.472;13.448;2023-10-19T12:35:15;8.20;99.90
18741;DHT22;9499;52.472;13.448;2023-10-19T12:37:45;8.30;99.90
18741;DHT22;9499;52.472;13.448;2023-10-19T12:40:16;8.30;99.90
18741;DHT22;9499;52.472;13.448;2023-10-19T12:42:52;8.20;99.90
18741;DHT22;9499;52.472;13.448;2023-10-19T12:45:19;8.20;99.90
18741;DHT22;9499;52.472;13.448;2023-10-19T12:47:47;8.20;99.90
18741;DHT22;9499;52.472;13.448;2023-10-19T12:50:15;8.30;99.90
18741;DHT22;9499;52.472;13.448;2023-10-19T12:52:41;8.30;99.90
18741;DHT22;9499;52.472;13.448;2023-10-19T12:55:08;8.30;99.90
18741;DHT22;9499;52.472;13.448;2023-10-19T12:57:36;8.30;99.90
18741;DHT22;9499;52.472;13.448;2023-10-19T13:00:03;8.30;99.90
18741;DHT22;9499;52.472;13.448;2023-10-19T13:02:50;8.30;99.90
18741;DHT22;9499;52.472;13.448;2023-10-19T13:05:17;8.20;99.90
18741;DHT22;9499;52.472;13.448;2023-10-19T13:07:45;8.20;99.90
18741;DHT22;9499;52.472;13.448;2023-10-19T13:10:12;8.20;99.90
18741;DHT22;9499;52.472;13.448;2023-10-19T13:12:39;8.20;99.90
18741;DHT22;9499;52.472;13.448;2023-10-19T13:15:07;8.20;99.90
18741;DHT22;9499;52.472;13.448;2023-10-19T13:17:39;8.20;99.90
18741;DHT22;9499;52.472;13.448;2023-10-19T13:20:09;8.10;99.90
18741;DHT22;9499;52.472;13.448;2023-10-19T13:22:43;8.10;99.90
18741;DHT22;9499;52.472;13.448;2023-10-19T13:25:10;8.00;99.90
18741;DHT22;9499;52.472;13.448;2023-10-19T13:27:38;8.00;99.90
18741;DHT22;9499;52.472;13.448;2023-10-19T13:30:07;8.00;99.90
18741;DHT22;9499;52.472;13.448;2023-10-19T13:32:35;8.00;99.90
18741;DHT22;9499;52.472;13.448;2023-10-19T13:35:02;8.00;99.90
18741;DHT22;9499;52.472;13.448;2023-10-19T13:37:30;7.90;99.90
18741;DHT22;9499;52.472;13.448;2023-10-19T13:39:57;7.90;99.90
18741;DHT22;9499;52.472;13.448;2023-10-19T13:42:24;7.90;99.90
18741;DHT22;9499;52.472;13.448;2023-10-19T13:44:51;7.90;99.90
18741;DHT22;9499;52.472;13.448;2023-10-19T13:47:17;7.90;99.90
18741;DHT22;9499;52.472;13.448;2023-10-19T13:49:44;7.90;99.90
18741;DHT22;9499;52.472;13.448;2023-10-19T13:52:11;7.90;99.90
18741;DHT22;9499;52.472;13.448;2023-10-19T13:54:41;8.00;99.90
18741;DHT22;9499;52.472;13.448;2023-10-19T13:57:08;8.00;99.90
18741;DHT22;9499;52.472;13.448;2023-10-19T13:59:35;8.00;99.90
18741;DHT22;9499;52.472;13.448;2023-10-19T14:02:02;8.00;99.90
18741;DHT22;9499;52.472;13.448;2023-10-19T14:04:28;8.00;99.90
18741;DHT22;9499;52.472;13.448;2023-10-19T14:06:55;8.00;99.90
18741;DHT22;9499;52.472;13.448;2023-10-19T14:09:22;8.00;99.90
18741;DHT22;9499;52.472;13.448;2023-10-19T14:11:53;8.00;99.90
18741;DHT22;9499;52.472;13.448;2023-10-19T14:14:19;8.00;99.90
18741;DHT22;9499;52.472;13.448;2023-10-19T14:16:46;8.00;99.90
18741;DHT22;9499;52.472;13.448;2023-10-19T14:19:15;8.00;99.90
18741;DHT22;9499;52.472;13.448;2023-10-19T14:21:43;8.00;99.90
18741;DHT22;9499;52.472;13.448;2023-10-19T14:24:11;8.00;99.90
18741;DHT22;9499;52.472;13.448;2023-10-19T14:26:38;8.00;99.90
18741;DHT22;9499;52.472;13.448;2023-10-19T14:29:07;8.00;99.90
18741;DHT22;9499;52.472;13.448;2023-10-19T14:31:33;8.00;99.90
18741;DHT22;9499;52.472;13.448;2023-10-19T14:34:00;8.00;99.90
18741;DHT22;9499;52.472;13.448;2023-10-19T14:36:26;8.00;99.90
18741;DHT22;9499;52.472;13.448;2023-10-19T14:38:54;8.00;99.90
18741;DHT22;9499;52.472;13.448;2023-10-19T14:41:21;8.00;99.90
18741;DHT22;9499;52.472;13.448;2023-10-19T14:43:47;8.00;99.90
18741;DHT22;9499;52.472;13.448;2023-10-19T14:46:15;8.00;99.90
18741;DHT22;9499;52.472;13.448;2023-10-19T14:48:43;8.00;99.90
18741;DHT22;9499;52.472;13.448;2023-10-19T14:51:10;8.00;99.90
18741;DHT22;9499;52.472;13.448;2023-10-19T14:53:37;8.00;99.90
18741;DHT22;9499;52.472;13.448;2023-10-19T14:56:04;8.00;99.90
18741;DHT22;9499;52.472;13.448;2023-10-19T14:58:31;8.00;99.90
18741;DHT22;9499;52.472;13.448;2023-10-19T15:00:57;8.00;99.90
18741;DHT22;9499;52.472;13.448;2023-10-19T15:03:25;8.00;99.90
18741;DHT22;9499;52.472;13.448;2023-10-19T15:05:54;8.00;99.90
18741;DHT22;9499;52.472;13.448;2023-10-19T15:08:20;8.00;99.90
18741;DHT22;9499;52.472;13.448;2023-10-19T15:10:49;8.00;99.90
18741;DHT22;9499;52.472;13.448;2023-10-19T15:13:16;8.00;99.90
18741;DHT22;9499;52.472;13.448;2023-10-19T15:15:43;7.90;99.90
18741;DHT22;9499;52.472;13.448;2023-10-19T15:18:09;7.90;99.90
18741;DHT22;9499;52.472;13.448;2023-10-19T15:20:37;7.90;99.90
18741;DHT22;9499;52.472;13.448;2023-10-19T15:23:04;7.90;99.90
18741;DHT22;9499;52.472;13.448;2023-10-19T15:25:30;7.90;99.90
18741;DHT22;9499;52.472;13.448;2023-10-19T15:27:57;7.90;99.90
18741;DHT22;9499;52.472;13.448;2023-10-19T15:30:23;7.90;99.90
18741;DHT22;9499;52.472;13.448;2023-10-19T15:32:51;7.90;99.90
18741;DHT22;9499;52.472;13.448;2023-10-19T15:35:18;7.90;99.90
18741;DHT22;9499;52.472;13.448;2023-10-19T15:37:49;7.90;99.90
18741;DHT22;9499;52.472;13.448;2023-10-19T15:40:16;7.90;99.90
18741;DHT22;9499;52.472;13.448;2023-10-19T15:42:44;7.90;99.90
18741;DHT22;9499;52.472;13.448;2023-10-19T15:45:13;7.90;99.90
18741;DHT22;9499;52.472;13.448;2023-10-19T15:47:43;7.90;99.90
18741;DHT22;9499;52.472;13.448;2023-10-19T15:50:11;7.90;99.90
18741;DHT22;9499;52.472;13.448;2023-10-19T15:52:38;7.80;99.90
18741;DHT22;9499;52.472;13.448;2023-10-19T15:55:09;7.90;99.90
18741;DHT22;9499;52.472;13.448;2023-10-19T15:57:37;7.90;99.90
18741;DHT22;9499;52.472;13.448;2023-10-19T16:00:04;7.80;99.90